Machynlleth, United Kingdom
Current Conditions -  °F | °C
As of 1:50 PM on Friday 24 Oct 2014 (Local Time) from EGOS Reporting Station
Drizzle Drizzle  
Wind Chill: 13°   Ceiling: 2200
Heat Index: 13°   Visibility: 6mi
Dew Point: 10°   Wind: 13mph
Humidity: 82%   Direction: 250°WSW
Pressure: 29.88"   Gusts: NA
Location:  52.59°N, 3.85°W
Report Text: EGOS 241250Z 25011KT 9999 -DZ FEW012 BKN022 13/10 Q1012 WHT TEMPO SCT025 BLU
Loading
Personal Weather Stations






























Interactive Weather Map
Tropical Storm Tracking
New forecast layout! Learn more

10-Day Weather Forecast

Advertisements
Track Severe Weather on mobile